createdAt,value
2017-07-21T00:00:24.399Z,0
2017-07-21T00:01:24.080Z,0
2017-07-21T00:02:24.354Z,0
2017-07-21T00:03:24.047Z,0
2017-07-21T00:04:24.016Z,0
2017-07-21T00:05:24.046Z,0
2017-07-21T00:06:23.675Z,0
2017-07-21T00:07:23.966Z,0
2017-07-21T00:08:23.948Z,0
2017-07-21T00:09:23.917Z,0
2017-07-21T00:10:23.893Z,0
2017-07-21T00:11:23.975Z,0
2017-07-21T00:12:23.968Z,0
2017-07-21T00:13:23.855Z,0
2017-07-21T00:14:23.826Z,0
2017-07-21T00:15:23.802Z,0
2017-07-21T00:16:23.826Z,0
2017-07-21T00:17:23.763Z,0
2017-07-21T00:18:23.734Z,0
2017-07-21T00:19:23.718Z,0
2017-07-21T00:20:23.392Z,0
2017-07-21T00:21:23.678Z,0
2017-07-21T00:22:23.844Z,0
2017-07-21T00:23:23.837Z,0
2017-07-21T00:24:23.534Z,0
2017-07-21T00:25:23.322Z,0
2017-07-21T00:26:23.634Z,0
2017-07-21T00:27:23.259Z,0
2017-07-21T00:28:23.295Z,0
2017-07-21T00:29:23.515Z,0
2017-07-21T00:30:23.492Z,0
2017-07-21T00:31:23.475Z,0
2017-07-21T00:32:23.503Z,0
2017-07-21T00:33:23.441Z,0
2017-07-21T00:34:23.411Z,0
2017-07-21T00:35:23.454Z,0
2017-07-21T00:36:23.375Z,0
2017-07-21T00:37:23.359Z,0
2017-07-21T00:38:23.334Z,0
2017-07-21T00:39:23.009Z,0
2017-07-21T00:40:23.001Z,0
2017-07-21T00:41:23.273Z,0
2017-07-21T00:42:23.264Z,0
2017-07-21T00:43:23.225Z,0
2017-07-21T00:44:23.215Z,0
2017-07-21T00:45:23.195Z,0
2017-07-21T00:46:23.174Z,0
2017-07-21T00:47:22.855Z,0
2017-07-21T00:48:23.142Z,0
2017-07-21T00:49:23.197Z,0
2017-07-21T00:50:23.157Z,0
2017-07-21T00:51:23.085Z,0
2017-07-21T00:52:23.052Z,0
2017-07-21T00:53:23.026Z,0
2017-07-21T00:54:23.019Z,0
2017-07-21T00:55:22.990Z,0
2017-07-21T00:56:22.966Z,0
2017-07-21T00:57:22.945Z,0
2017-07-21T00:58:22.938Z,0
2017-07-21T00:59:22.909Z,0
2017-07-21T01:00:22.908Z,0
2017-07-21T01:01:22.866Z,0
2017-07-21T01:02:22.855Z,0
2017-07-21T01:03:22.555Z,0
2017-07-21T01:04:22.807Z,0
2017-07-21T01:05:22.486Z,0
2017-07-21T01:06:22.769Z,0
2017-07-21T01:07:22.453Z,0
2017-07-21T01:08:22.733Z,0
2017-07-21T01:09:22.707Z,0
2017-07-21T01:10:22.677Z,0
2017-07-21T01:11:22.977Z,0
2017-07-21T01:12:22.644Z,0
2017-07-21T01:13:22.678Z,0
2017-07-21T01:14:22.708Z,0
2017-07-21T01:15:22.581Z,0
2017-07-21T01:16:22.570Z,0
2017-07-21T01:17:22.249Z,0
2017-07-21T01:18:22.527Z,0
2017-07-21T01:19:22.502Z,0
2017-07-21T01:20:22.477Z,0
2017-07-21T01:21:22.464Z,0
2017-07-21T01:22:22.454Z,0
2017-07-21T01:23:22.124Z,0
2017-07-21T01:24:22.096Z,0
2017-07-21T01:25:22.385Z,0
2017-07-21T01:26:22.362Z,0
2017-07-21T01:27:22.337Z,0
2017-07-21T01:28:22.315Z,0
2017-07-21T01:29:22.302Z,0
2017-07-21T01:30:22.279Z,0
2017-07-21T01:31:22.266Z,0
2017-07-21T01:32:23.292Z,0
2017-07-21T01:33:23.223Z,0
2017-07-21T01:34:22.192Z,0
2017-07-21T01:35:22.182Z,0
2017-07-21T01:36:22.162Z,0
2017-07-21T01:37:22.130Z,0
2017-07-21T01:38:22.113Z,0
2017-07-21T01:39:22.087Z,0
2017-07-21T01:40:22.075Z,0
2017-07-21T01:41:21.745Z,0
2017-07-21T01:42:22.094Z,0
2017-07-21T01:43:21.717Z,0
2017-07-21T01:44:22.053Z,0
2017-07-21T01:45:21.967Z,0
2017-07-21T01:46:21.953Z,0
2017-07-21T01:47:21.928Z,0
2017-07-21T01:48:21.957Z,0
2017-07-21T01:49:21.930Z,0
2017-07-21T01:50:21.862Z,0
2017-07-21T01:51:21.895Z,0
2017-07-21T01:52:21.831Z,0
2017-07-21T01:53:21.809Z,0
2017-07-21T01:54:21.479Z,0
2017-07-21T01:55:21.780Z,0
2017-07-21T01:56:21.741Z,0
2017-07-21T01:57:21.732Z,0
2017-07-21T01:58:21.704Z,0
2017-07-21T01:59:21.677Z,0
2017-07-21T02:00:21.712Z,0
2017-07-21T02:01:21.693Z,0
2017-07-21T02:02:21.322Z,0
2017-07-21T02:03:21.598Z,0
2017-07-21T02:04:21.585Z,0
2017-07-21T02:05:21.567Z,0
2017-07-21T02:06:21.539Z,0
2017-07-21T02:07:21.620Z,0
2017-07-21T02:08:21.546Z,0
2017-07-21T02:09:21.178Z,0
2017-07-21T02:10:20.896Z,0
2017-07-21T02:11:21.441Z,0
2017-07-21T02:12:21.112Z,0
2017-07-21T02:13:21.104Z,0
2017-07-21T02:14:21.378Z,0
2017-07-21T02:15:21.358Z,0
2017-07-21T02:16:21.330Z,0
2017-07-21T02:17:21.314Z,0
2017-07-21T02:18:21.286Z,0
2017-07-21T02:19:20.971Z,0
2017-07-21T02:20:20.952Z,0
2017-07-21T02:21:21.230Z,0
2017-07-21T02:22:21.207Z,0
2017-07-21T02:23:21.192Z,0
2017-07-21T02:24:21.165Z,0
2017-07-21T02:25:21.148Z,0
2017-07-21T02:26:21.139Z,0
2017-07-21T02:27:21.111Z,0
2017-07-21T02:28:21.142Z,0
2017-07-21T02:29:21.063Z,0
2017-07-21T02:30:21.052Z,0
2017-07-21T02:31:20.724Z,0
2017-07-21T02:32:21.001Z,0
2017-07-21T02:33:20.990Z,0
2017-07-21T02:34:21.011Z,0
2017-07-21T02:35:20.946Z,0
2017-07-21T02:36:20.955Z,0
2017-07-21T02:37:20.895Z,0
2017-07-21T02:38:20.582Z,0
2017-07-21T02:39:20.961Z,0
2017-07-21T02:40:20.892Z,0
2017-07-21T02:41:20.825Z,0
2017-07-21T02:42:20.541Z,0
2017-07-21T02:43:20.177Z,0
2017-07-21T02:44:20.761Z,0
2017-07-21T02:45:20.434Z,0
2017-07-21T02:46:20.715Z,0
2017-07-21T02:47:20.393Z,0
2017-07-21T02:48:20.728Z,0
2017-07-21T02:49:20.655Z,0
2017-07-21T02:50:20.626Z,0
2017-07-21T02:51:20.611Z,0
2017-07-21T02:52:20.287Z,0
2017-07-21T02:53:20.566Z,0
2017-07-21T02:54:20.583Z,0
2017-07-21T02:55:20.522Z,0
2017-07-21T02:56:20.511Z,0
2017-07-21T02:57:20.487Z,0
2017-07-21T02:58:20.462Z,0
2017-07-21T02:59:20.136Z,0
2017-07-21T03:00:20.475Z,0
2017-07-21T03:01:20.412Z,0
2017-07-21T03:02:20.129Z,0
2017-07-21T03:03:20.362Z,0
2017-07-21T03:04:20.348Z,0
2017-07-21T03:05:20.327Z,0
2017-07-21T03:06:19.998Z,0
2017-07-21T03:07:20.277Z,0
2017-07-21T03:08:20.251Z,0
2017-07-21T03:09:20.237Z,0
2017-07-21T03:10:19.917Z,0
2017-07-21T03:11:20.200Z,0
2017-07-21T03:12:20.189Z,0
2017-07-21T03:13:20.202Z,0
2017-07-21T03:14:20.142Z,0
2017-07-21T03:15:20.110Z,0
2017-07-21T03:16:19.791Z,0
2017-07-21T03:17:20.068Z,0
2017-07-21T03:18:19.747Z,0
2017-07-21T03:19:19.724Z,0
2017-07-21T03:20:19.699Z,0
2017-07-21T03:21:19.978Z,0
2017-07-21T03:22:19.962Z,0
2017-07-21T03:23:19.343Z,0
2017-07-21T03:24:19.922Z,0
2017-07-21T03:25:19.903Z,5
2017-07-21T03:26:19.940Z,5
2017-07-21T03:27:19.859Z,5
2017-07-21T03:28:19.843Z,5
2017-07-21T03:29:19.830Z,5
2017-07-21T03:30:19.809Z,5
2017-07-21T03:31:19.786Z,5
2017-07-21T03:32:19.457Z,5
2017-07-21T03:33:19.732Z,5
2017-07-21T03:34:19.757Z,10
2017-07-21T03:35:19.397Z,10
2017-07-21T03:36:19.689Z,10
2017-07-21T03:37:19.657Z,10
2017-07-21T03:38:19.323Z,10
2017-07-21T03:39:19.609Z,10
2017-07-21T03:40:19.595Z,15
2017-07-21T03:41:19.580Z,15
2017-07-21T03:42:19.554Z,15
2017-07-21T03:43:19.529Z,15
2017-07-21T03:44:19.504Z,20
2017-07-21T03:45:19.483Z,20
2017-07-21T03:46:19.469Z,20
2017-07-21T03:47:19.153Z,20
2017-07-21T03:48:19.423Z,25
2017-07-21T03:49:19.406Z,25
2017-07-21T03:50:19.083Z,30
2017-07-21T03:51:19.364Z,30
2017-07-21T03:52:19.334Z,30
2017-07-21T03:53:19.327Z,35
2017-07-21T03:54:19.302Z,35
2017-07-21T03:55:19.336Z,35
2017-07-21T03:56:19.251Z,40
2017-07-21T03:57:18.930Z,40
2017-07-21T03:58:19.213Z,40
2017-07-21T03:59:19.198Z,45
2017-07-21T04:00:19.176Z,45
2017-07-21T04:01:18.857Z,50
2017-07-21T04:02:19.134Z,50
2017-07-21T04:03:19.121Z,50
2017-07-21T04:04:19.093Z,50
2017-07-21T04:05:20.331Z,55
2017-07-21T04:06:19.053Z,60
2017-07-21T04:07:18.730Z,65
2017-07-21T04:08:19.009Z,70
2017-07-21T04:09:19.001Z,80
2017-07-21T04:10:18.962Z,80
2017-07-21T04:11:18.659Z,95
2017-07-21T04:12:18.956Z,105
2017-07-21T04:13:18.913Z,115
2017-07-21T04:14:18.894Z,125
2017-07-21T04:15:18.862Z,130
2017-07-21T04:16:19.067Z,135
2017-07-21T04:17:18.534Z,145
2017-07-21T04:18:18.849Z,150
2017-07-21T04:19:18.496Z,150
2017-07-21T04:20:19.004Z,155
2017-07-21T04:21:18.742Z,160
2017-07-21T04:22:18.729Z,160
2017-07-21T04:23:18.098Z,155
2017-07-21T04:24:18.684Z,165
2017-07-21T04:25:18.364Z,170
2017-07-21T04:26:18.637Z,175
2017-07-21T04:27:18.631Z,180
2017-07-21T04:28:18.608Z,175
2017-07-21T04:29:18.599Z,170
2017-07-21T04:30:18.557Z,190
2017-07-21T04:31:18.567Z,190
2017-07-21T04:32:17.927Z,180
2017-07-21T04:33:18.502Z,195
2017-07-21T04:34:18.481Z,210
2017-07-21T04:35:18.472Z,205
2017-07-21T04:36:18.442Z,195
2017-07-21T04:37:18.448Z,180
2017-07-21T04:38:18.448Z,175
2017-07-21T04:39:18.385Z,165
2017-07-21T04:40:18.459Z,195
2017-07-21T04:41:18.048Z,230
2017-07-21T04:42:18.049Z,240
2017-07-21T04:43:18.359Z,245
2017-07-21T04:44:17.973Z,255
2017-07-21T04:45:18.276Z,260
2017-07-21T04:46:18.292Z,260
2017-07-21T04:47:17.931Z,255
2017-07-21T04:48:18.222Z,250
2017-07-21T04:49:18.185Z,260
2017-07-21T04:50:18.180Z,280
2017-07-21T04:51:18.174Z,290
2017-07-21T04:52:18.181Z,290
2017-07-21T04:53:18.126Z,295
2017-07-21T04:54:17.494Z,305
2017-07-21T04:55:18.095Z,315
2017-07-21T04:56:18.058Z,290
2017-07-21T04:57:18.057Z,315
2017-07-21T04:58:18.018Z,320
2017-07-21T04:59:18.005Z,325
2017-07-21T05:00:17.989Z,325
2017-07-21T05:01:17.973Z,330
2017-07-21T05:02:17.956Z,335
2017-07-21T05:03:17.926Z,335
2017-07-21T05:04:17.941Z,340
2017-07-21T05:05:17.600Z,345
2017-07-21T05:06:17.869Z,350
2017-07-21T05:07:17.869Z,350
2017-07-21T05:08:17.838Z,355
2017-07-21T05:09:17.830Z,360
2017-07-21T05:10:17.796Z,360
2017-07-21T05:11:17.840Z,365
2017-07-21T05:12:17.463Z,365
2017-07-21T05:13:17.742Z,370
2017-07-21T05:14:17.754Z,375
2017-07-21T05:15:17.730Z,370
2017-07-21T05:16:17.698Z,390
2017-07-21T05:17:17.682Z,385
2017-07-21T05:18:17.361Z,395
2017-07-21T05:19:17.647Z,405
2017-07-21T05:20:17.634Z,410
2017-07-21T05:21:17.610Z,405
2017-07-21T05:22:17.609Z,345
2017-07-21T05:23:17.581Z,375
2017-07-21T05:24:17.254Z,425
2017-07-21T05:25:17.549Z,430
2017-07-21T05:26:17.521Z,440
2017-07-21T05:27:17.520Z,445
2017-07-21T05:28:17.487Z,450
2017-07-21T05:29:17.224Z,450
2017-07-21T05:30:17.511Z,460
2017-07-21T05:31:17.455Z,465
2017-07-21T05:32:17.124Z,475
2017-07-21T05:33:17.411Z,485
2017-07-21T05:34:17.402Z,480
2017-07-21T05:35:17.439Z,495
2017-07-21T05:36:16.812Z,500
2017-07-21T05:37:17.346Z,505
2017-07-21T05:38:17.379Z,475
2017-07-21T05:39:17.316Z,500
2017-07-21T05:40:17.004Z,515
2017-07-21T05:41:17.352Z,535
2017-07-21T05:42:17.263Z,535
2017-07-21T05:43:17.252Z,515
2017-07-21T05:44:17.236Z,555
2017-07-21T05:45:17.229Z,555
2017-07-21T05:46:17.204Z,555
2017-07-21T05:47:16.886Z,560
2017-07-21T05:48:16.875Z,570
2017-07-21T05:49:17.160Z,580
2017-07-21T05:50:17.196Z,585
2017-07-21T05:51:16.816Z,585
2017-07-21T05:52:17.160Z,585
2017-07-21T05:53:17.105Z,580
2017-07-21T05:54:17.082Z,575
2017-07-21T05:55:17.065Z,580
2017-07-21T05:56:17.052Z,585
2017-07-21T05:57:17.039Z,600
2017-07-21T05:58:17.019Z,600
2017-07-21T05:59:17.060Z,605
2017-07-21T06:00:16.989Z,620
2017-07-21T06:01:16.895Z,615
2017-07-21T06:02:16.962Z,650
2017-07-21T06:03:16.647Z,650
2017-07-21T06:04:16.933Z,670
2017-07-21T06:05:16.921Z,665
2017-07-21T06:06:16.903Z,675
2017-07-21T06:07:16.889Z,680
2017-07-21T06:08:16.877Z,705
2017-07-21T06:09:16.573Z,730
2017-07-21T06:10:16.859Z,705
2017-07-21T06:11:16.894Z,715
2017-07-21T06:12:16.828Z,725
2017-07-21T06:13:16.803Z,730
2017-07-21T06:14:16.791Z,725
2017-07-21T06:15:16.781Z,725
2017-07-21T06:16:16.770Z,735
2017-07-21T06:17:16.806Z,780
2017-07-21T06:18:16.747Z,780
2017-07-21T06:19:16.737Z,790
2017-07-21T06:20:16.718Z,790
2017-07-21T06:21:16.696Z,795
2017-07-21T06:22:16.689Z,800
2017-07-21T06:23:16.701Z,800
2017-07-21T06:24:16.657Z,775
2017-07-21T06:25:16.646Z,755
2017-07-21T06:26:16.644Z,755
2017-07-21T06:27:16.625Z,700
2017-07-21T06:28:16.607Z,775
2017-07-21T06:29:16.598Z,730
2017-07-21T06:30:16.597Z,750
2017-07-21T06:31:16.575Z,760
2017-07-21T06:32:16.606Z,770
2017-07-21T06:33:16.550Z,800
2017-07-21T06:34:16.547Z,825
2017-07-21T06:35:16.223Z,825
2017-07-21T06:36:16.511Z,820
2017-07-21T06:37:16.500Z,825
2017-07-21T06:38:16.485Z,810
2017-07-21T06:39:16.182Z,845
2017-07-21T06:40:16.501Z,890
2017-07-21T06:41:16.453Z,905
2017-07-21T06:42:16.447Z,915
2017-07-21T06:43:16.431Z,975
2017-07-21T06:44:16.430Z,970
2017-07-21T06:45:15.796Z,955
2017-07-21T06:46:16.389Z,965
2017-07-21T06:47:16.384Z,975
2017-07-21T06:48:16.362Z,965
2017-07-21T06:49:16.055Z,985
2017-07-21T06:50:16.349Z,985
2017-07-21T06:51:16.332Z,1000
2017-07-21T06:52:16.329Z,985
2017-07-21T06:53:16.320Z,1025
2017-07-21T06:54:16.301Z,1015
2017-07-21T06:55:16.296Z,860
2017-07-21T06:56:16.281Z,940
2017-07-21T06:57:16.270Z,995
2017-07-21T06:58:15.960Z,1040
2017-07-21T06:59:16.247Z,1035
2017-07-21T07:00:16.233Z,1045
2017-07-21T07:01:16.238Z,1055
2017-07-21T07:02:16.235Z,1095
2017-07-21T07:03:16.227Z,1080
2017-07-21T07:04:16.203Z,1125
2017-07-21T07:05:16.187Z,1125
2017-07-21T07:06:16.423Z,1150
2017-07-21T07:07:15.915Z,1140
2017-07-21T07:08:16.155Z,1160
2017-07-21T07:09:16.141Z,1140
2017-07-21T07:10:16.131Z,1160
2017-07-21T07:11:16.118Z,1165
2017-07-21T07:12:16.129Z,1170
2017-07-21T07:13:16.121Z,1070
2017-07-21T07:14:16.101Z,1000
2017-07-21T07:15:16.085Z,1140
2017-07-21T07:16:16.064Z,1190
2017-07-21T07:17:16.062Z,1210
2017-07-21T07:18:16.055Z,1220
2017-07-21T07:19:16.043Z,1210
2017-07-21T07:20:16.039Z,1235
2017-07-21T07:21:16.033Z,1240
2017-07-21T07:22:16.070Z,1245
2017-07-21T07:23:16.008Z,1260
2017-07-21T07:24:15.999Z,1260
2017-07-21T07:25:16.005Z,1230
2017-07-21T07:26:15.984Z,1265
2017-07-21T07:27:15.985Z,1280
2017-07-21T07:28:16.070Z,1280
2017-07-21T07:29:15.963Z,1275
2017-07-21T07:30:16.006Z,1270
2017-07-21T07:31:15.639Z,1270
2017-07-21T07:32:15.935Z,1260
2017-07-21T07:33:15.922Z,1265
2017-07-21T07:34:15.921Z,1265
2017-07-21T07:35:17.512Z,1265
2017-07-21T07:36:15.889Z,1270
2017-07-21T07:37:15.593Z,1275
2017-07-21T07:38:15.888Z,1285
2017-07-21T07:39:15.567Z,1290
2017-07-21T07:40:15.577Z,1305
2017-07-21T07:41:15.901Z,1310
2017-07-21T07:42:15.853Z,1310
2017-07-21T07:43:15.831Z,1320
2017-07-21T07:44:15.527Z,1325
2017-07-21T07:45:15.528Z,1335
2017-07-21T07:46:15.812Z,1360
2017-07-21T07:47:15.807Z,1385
2017-07-21T07:48:15.800Z,1385
2017-07-21T07:49:15.790Z,1410
2017-07-21T07:50:15.787Z,1420
2017-07-21T07:51:15.796Z,1410
2017-07-21T07:52:15.775Z,1425
2017-07-21T07:53:15.777Z,1450
2017-07-21T07:54:15.759Z,1460
2017-07-21T07:55:15.755Z,1470
2017-07-21T07:56:15.752Z,1485
2017-07-21T07:57:15.739Z,1495
2017-07-21T07:58:15.734Z,1505
2017-07-21T07:59:15.732Z,1495
2017-07-21T08:00:15.716Z,1500
2017-07-21T08:01:15.416Z,1520
2017-07-21T08:02:15.453Z,1530
2017-07-21T08:03:15.701Z,1535
2017-07-21T08:04:15.814Z,1530
2017-07-21T08:05:15.705Z,1535
2017-07-21T08:06:15.671Z,1530
2017-07-21T08:07:15.730Z,1535
2017-07-21T08:08:15.361Z,1525
2017-07-21T08:09:15.722Z,1535
2017-07-21T08:10:15.648Z,1550
2017-07-21T08:11:15.654Z,1575
2017-07-21T08:12:15.700Z,1580
2017-07-21T08:13:15.337Z,1615
2017-07-21T08:14:15.627Z,1620
2017-07-21T08:15:15.869Z,1605
2017-07-21T08:16:15.610Z,1620
2017-07-21T08:17:15.613Z,1635
2017-07-21T08:18:15.656Z,1505
2017-07-21T08:19:15.298Z,1640
2017-07-21T08:20:15.583Z,1625
2017-07-21T08:21:15.576Z,1615
2017-07-21T08:22:15.320Z,910
2017-07-21T08:23:15.255Z,1665
2017-07-21T08:24:15.560Z,1620
2017-07-21T08:25:15.545Z,1610
2017-07-21T08:26:15.558Z,1625
2017-07-21T08:27:15.533Z,1630
2017-07-21T08:28:15.535Z,1640
2017-07-21T08:29:15.536Z,1655
2017-07-21T08:30:15.522Z,1670
2017-07-21T08:31:15.308Z,1710
2017-07-21T08:32:15.521Z,1695
2017-07-21T08:33:15.525Z,1700
2017-07-21T08:34:15.549Z,1690
2017-07-21T08:35:15.198Z,1675
2017-07-21T08:36:15.542Z,1660
2017-07-21T08:37:15.475Z,1650
2017-07-21T08:38:15.496Z,1660
2017-07-21T08:39:15.465Z,1685
2017-07-21T08:40:15.160Z,1710
2017-07-21T08:41:15.459Z,1750
2017-07-21T08:42:15.464Z,1785
2017-07-21T08:43:15.453Z,1785
2017-07-21T08:44:15.453Z,1805
2017-07-21T08:45:15.432Z,1870
2017-07-21T08:46:15.430Z,2015
2017-07-21T08:47:15.423Z,2055
2017-07-21T08:48:15.125Z,2105
2017-07-21T08:49:15.416Z,2145
2017-07-21T08:50:15.403Z,2020
2017-07-21T08:51:15.652Z,2115
2017-07-21T08:52:15.380Z,2195
2017-07-21T08:53:15.382Z,2170
2017-07-21T08:54:15.085Z,2095
2017-07-21T08:55:15.370Z,1970
2017-07-21T08:56:15.364Z,1955
2017-07-21T08:57:15.362Z,1940
2017-07-21T08:58:15.371Z,1950
2017-07-21T08:59:15.359Z,1945
2017-07-21T09:00:15.350Z,1960
2017-07-21T09:01:15.391Z,1940
2017-07-21T09:02:14.746Z,1945
2017-07-21T09:03:15.328Z,1940
2017-07-21T09:04:15.324Z,1945
2017-07-21T09:05:15.342Z,1945
2017-07-21T09:06:15.042Z,1935
2017-07-21T09:07:15.314Z,1940
2017-07-21T09:08:15.300Z,1945
2017-07-21T09:09:15.347Z,1955
2017-07-21T09:10:14.995Z,1935
2017-07-21T09:11:15.317Z,1910
2017-07-21T09:12:15.335Z,1935
2017-07-21T09:13:15.265Z,1915
2017-07-21T09:14:15.277Z,1825
2017-07-21T09:15:15.274Z,1950
2017-07-21T09:16:15.247Z,1960
2017-07-21T09:17:15.208Z,1965
2017-07-21T09:18:15.251Z,1935
2017-07-21T09:19:15.185Z,1915
2017-07-21T09:20:15.248Z,1905
2017-07-21T09:21:15.253Z,1910
2017-07-21T09:22:15.233Z,1875
2017-07-21T09:23:15.223Z,1850
2017-07-21T09:24:15.212Z,1815
2017-07-21T09:25:15.224Z,1835
2017-07-21T09:26:15.513Z,1875
2017-07-21T09:27:15.205Z,1930
2017-07-21T09:28:15.189Z,1935
2017-07-21T09:29:15.200Z,1980
2017-07-21T09:30:15.186Z,1980
2017-07-21T09:31:15.191Z,2020
2017-07-21T09:32:14.873Z,2035
2017-07-21T09:33:15.161Z,2000
2017-07-21T09:34:15.169Z,2005
2017-07-21T09:35:15.155Z,1980
2017-07-21T09:36:15.189Z,1975
2017-07-21T09:37:14.804Z,1990
2017-07-21T09:38:15.088Z,1980
2017-07-21T09:39:15.133Z,1990
2017-07-21T09:40:15.120Z,2005
2017-07-21T09:41:15.116Z,1995
2017-07-21T09:42:15.118Z,2030
2017-07-21T09:43:15.104Z,2035
2017-07-21T09:44:15.100Z,2025
2017-07-21T09:45:14.847Z,2005
2017-07-21T09:46:14.794Z,1990
2017-07-21T09:47:15.081Z,1990
2017-07-21T09:48:15.080Z,1955
2017-07-21T09:49:15.090Z,1930
2017-07-21T09:50:15.086Z,1900
2017-07-21T09:51:15.121Z,1905
2017-07-21T09:52:15.067Z,1925
2017-07-21T09:53:15.058Z,1910
2017-07-21T09:54:14.757Z,1910
2017-07-21T09:55:15.046Z,1885
2017-07-21T09:56:14.783Z,1910
2017-07-21T09:57:15.041Z,1895
2017-07-21T09:58:14.732Z,1915
2017-07-21T09:59:15.033Z,1915
2017-07-21T10:00:14.714Z,1910
2017-07-21T10:01:15.085Z,1905
2017-07-21T10:02:15.011Z,1915
2017-07-21T10:03:14.704Z,1905
2017-07-21T10:04:15.011Z,1925
2017-07-21T10:05:14.657Z,1920
2017-07-21T10:06:14.992Z,1920
2017-07-21T10:07:14.979Z,1945
2017-07-21T10:08:14.995Z,1975
2017-07-21T10:09:14.674Z,2015
2017-07-21T10:10:14.961Z,2030
2017-07-21T10:11:15.186Z,2060
2017-07-21T10:12:14.953Z,2070
2017-07-21T10:13:14.955Z,2090
2017-07-21T10:14:15.003Z,2105
2017-07-21T10:15:14.939Z,2100
2017-07-21T10:16:14.930Z,2120
2017-07-21T10:17:14.981Z,2115
2017-07-21T10:18:14.628Z,2110
2017-07-21T10:19:14.926Z,2110
2017-07-21T10:20:14.607Z,2095
2017-07-21T10:21:14.913Z,2095
2017-07-21T10:22:14.961Z,2115
2017-07-21T10:23:14.899Z,2115
2017-07-21T10:24:14.286Z,2130
2017-07-21T10:25:14.885Z,2120
2017-07-21T10:26:14.875Z,2130
2017-07-21T10:27:14.928Z,2140
2017-07-21T10:28:14.570Z,2135
2017-07-21T10:29:14.862Z,2135
2017-07-21T10:30:14.855Z,2150
2017-07-21T10:31:14.860Z,2140
2017-07-21T10:32:14.847Z,2140
2017-07-21T10:33:14.855Z,2135
2017-07-21T10:34:14.839Z,2145
2017-07-21T10:35:14.823Z,320
2017-07-21T10:36:14.563Z,2175
2017-07-21T10:37:14.805Z,2185
2017-07-21T10:38:14.799Z,2145
2017-07-21T10:39:14.798Z,2125
2017-07-21T10:40:14.500Z,2165
2017-07-21T10:41:14.786Z,2195
2017-07-21T10:42:14.813Z,2165
2017-07-21T10:43:14.782Z,2200
2017-07-21T10:44:14.790Z,1225
2017-07-21T10:45:14.759Z,2255
2017-07-21T10:46:14.747Z,2335
2017-07-21T10:47:14.450Z,2290
2017-07-21T10:48:14.809Z,2255
2017-07-21T10:49:14.722Z,2205
2017-07-21T10:50:29.340Z,2165
2017-07-21T10:51:14.777Z,2135
2017-07-21T10:52:14.116Z,2010
2017-07-21T10:53:14.714Z,1740
2017-07-21T10:54:14.109Z,2020
2017-07-21T10:55:14.696Z,2035
2017-07-21T10:56:14.739Z,2030
2017-07-21T10:57:15.485Z,2035
2017-07-21T10:58:14.518Z,2080
2017-07-21T10:59:15.184Z,2060
2017-07-21T11:00:16.253Z,2020
2017-07-21T11:01:15.984Z,1990
2017-07-21T11:02:15.266Z,1985
2017-07-21T11:03:15.779Z,1980
2017-07-21T11:04:15.812Z,1910
2017-07-21T11:05:14.517Z,1860
2017-07-21T11:06:14.689Z,1865
2017-07-21T11:07:14.627Z,1920
2017-07-21T11:08:14.328Z,1970
2017-07-21T11:09:14.685Z,2010
2017-07-21T11:10:14.675Z,2050
2017-07-21T11:11:14.607Z,2085
2017-07-21T11:12:14.598Z,2150
2017-07-21T11:13:14.631Z,2220
2017-07-21T11:14:14.591Z,2235
2017-07-21T11:15:14.580Z,2210
2017-07-21T11:16:14.291Z,2250
2017-07-21T11:17:14.583Z,2200
2017-07-21T11:18:14.334Z,1370
2017-07-21T11:19:14.280Z,385
2017-07-21T11:20:14.292Z,250
2017-07-21T11:21:14.277Z,250
2017-07-21T11:22:14.529Z,250
2017-07-21T11:23:14.544Z,250
2017-07-21T11:24:14.240Z,245
2017-07-21T11:25:14.532Z,245
2017-07-21T11:26:13.925Z,245
2017-07-21T11:27:14.571Z,245
2017-07-21T11:28:13.918Z,240
2017-07-21T11:29:14.505Z,245
2017-07-21T11:30:14.488Z,245
2017-07-21T11:31:14.198Z,250
2017-07-21T11:32:14.519Z,250
2017-07-21T11:33:14.529Z,240
2017-07-21T11:34:13.933Z,240
2017-07-21T11:35:14.162Z,240
2017-07-21T11:36:14.447Z,235
2017-07-21T11:37:14.390Z,235
2017-07-21T11:38:14.388Z,235
2017-07-21T11:39:14.371Z,235
2017-07-21T11:40:14.122Z,240
2017-07-21T11:41:14.342Z,235
2017-07-21T11:42:14.315Z,235
2017-07-21T11:43:14.306Z,230
2017-07-21T11:44:13.688Z,230
2017-07-21T11:45:14.277Z,230
2017-07-21T11:46:13.963Z,230
2017-07-21T11:47:14.258Z,230
2017-07-21T11:48:14.228Z,230
2017-07-21T11:49:13.915Z,225
2017-07-21T11:50:14.197Z,225
2017-07-21T11:51:14.213Z,220
2017-07-21T11:52:14.169Z,225
2017-07-21T11:53:14.232Z,225
2017-07-21T11:54:14.196Z,220
2017-07-21T11:55:14.125Z,215
2017-07-21T11:56:14.132Z,220
2017-07-21T11:57:14.101Z,215
2017-07-21T11:58:13.477Z,220
2017-07-21T11:59:14.072Z,220
2017-07-21T12:00:13.749Z,220
2017-07-21T12:01:14.100Z,220
2017-07-21T12:02:14.078Z,220
2017-07-21T12:03:14.000Z,215
2017-07-21T12:04:13.998Z,215
2017-07-21T12:05:13.977Z,215
2017-07-21T12:06:13.672Z,215
2017-07-21T12:07:13.637Z,215
2017-07-21T12:08:13.634Z,215
2017-07-21T12:09:13.910Z,210
2017-07-21T12:10:13.612Z,210
2017-07-21T12:11:13.907Z,210
2017-07-21T12:12:13.878Z,205
2017-07-21T12:13:13.886Z,205
2017-07-21T12:14:13.844Z,205
2017-07-21T12:15:13.507Z,205
2017-07-21T12:16:13.494Z,200
2017-07-21T12:17:13.779Z,200
2017-07-21T12:18:13.851Z,200
2017-07-21T12:19:13.749Z,200
2017-07-21T12:20:13.437Z,200
2017-07-21T12:21:13.720Z,200
2017-07-21T12:22:13.708Z,200
2017-07-21T12:23:13.728Z,200
2017-07-21T12:24:13.676Z,195
2017-07-21T12:25:13.653Z,195
2017-07-21T12:26:13.634Z,195
2017-07-21T12:27:13.316Z,195
2017-07-21T12:28:13.642Z,195
2017-07-21T12:29:13.290Z,195
2017-07-21T12:30:13.272Z,195
2017-07-21T12:31:13.253Z,195
2017-07-21T12:32:13.591Z,195
2017-07-21T12:33:13.530Z,195
2017-07-21T12:34:13.519Z,195
2017-07-21T12:35:13.495Z,185
2017-07-21T12:36:13.498Z,195
2017-07-21T12:37:13.455Z,195
2017-07-21T12:38:13.138Z,190
2017-07-21T12:39:13.122Z,190
2017-07-21T12:40:13.100Z,190
2017-07-21T12:41:13.393Z,190
2017-07-21T12:42:13.372Z,190
2017-07-21T12:43:13.370Z,190
2017-07-21T12:44:13.033Z,190
2017-07-21T12:45:12.772Z,185
2017-07-21T12:46:13.297Z,185
2017-07-21T12:47:13.280Z,185
2017-07-21T12:48:13.276Z,195
2017-07-21T12:49:13.256Z,185
2017-07-21T12:50:12.925Z,185
2017-07-21T12:51:13.514Z,190
2017-07-21T12:52:12.894Z,195
2017-07-21T12:53:13.203Z,190
2017-07-21T12:54:13.166Z,190
2017-07-21T12:55:13.152Z,190
2017-07-21T12:56:13.131Z,190
2017-07-21T12:57:13.114Z,190
2017-07-21T12:58:13.103Z,190
2017-07-21T12:59:13.136Z,195
2017-07-21T13:00:13.114Z,200
2017-07-21T13:01:12.751Z,195
2017-07-21T13:02:13.042Z,200
2017-07-21T13:03:13.015Z,195
2017-07-21T13:04:13.004Z,195
2017-07-21T13:05:12.675Z,195
2017-07-21T13:06:12.714Z,195
2017-07-21T13:07:12.994Z,195
2017-07-21T13:08:12.639Z,200
2017-07-21T13:09:12.606Z,205
2017-07-21T13:10:12.903Z,205
2017-07-21T13:11:12.876Z,205
2017-07-21T13:12:12.864Z,205
2017-07-21T13:13:12.559Z,200
2017-07-21T13:14:12.835Z,195
2017-07-21T13:15:12.890Z,195
2017-07-21T13:16:12.500Z,195
2017-07-21T13:17:12.786Z,200
2017-07-21T13:18:12.764Z,200
2017-07-21T13:19:12.767Z,195
2017-07-21T13:20:12.726Z,190
2017-07-21T13:21:12.786Z,190
2017-07-21T13:22:12.708Z,200
2017-07-21T13:23:12.431Z,205
2017-07-21T13:24:12.666Z,205
2017-07-21T13:25:12.703Z,200
2017-07-21T13:26:12.321Z,195
2017-07-21T13:27:12.312Z,195
2017-07-21T13:28:12.896Z,195
2017-07-21T13:29:12.578Z,190
2017-07-21T13:30:12.568Z,190
2017-07-21T13:31:12.247Z,190
2017-07-21T13:32:12.537Z,190
2017-07-21T13:33:12.669Z,185
2017-07-21T13:34:12.498Z,190
2017-07-21T13:35:12.474Z,190
2017-07-21T13:36:12.164Z,200
2017-07-21T13:37:12.446Z,210
2017-07-21T13:38:12.437Z,215
2017-07-21T13:39:12.106Z,210
2017-07-21T13:40:12.109Z,215
2017-07-21T13:41:12.441Z,210
2017-07-21T13:42:12.061Z,215
2017-07-21T13:43:12.346Z,215
2017-07-21T13:44:12.293Z,215
2017-07-21T13:45:12.014Z,215
2017-07-21T13:46:12.303Z,225
2017-07-21T13:47:12.291Z,230
2017-07-21T13:48:12.273Z,235
2017-07-21T13:49:12.011Z,245
2017-07-21T13:50:12.282Z,250
2017-07-21T13:51:12.221Z,245
2017-07-21T13:52:12.199Z,250
2017-07-21T13:53:12.194Z,255